Time;durP1;ratioP1;P1;durP2;ratioP2;P2;SDS_P1;SDS_P2;PMS_P1;PMS_P2;Temp;Humidity;BMP_temperature;BMP_pressure;BME280_temperature;BME280_humidity;BME280_pressure;Samples;Min_cycle;Max_cycle;Signal;HPM_P1;HPM_P2
2022/04/28 00:01:46;;;;;;;7.00;3.10;;;;;12.80;97567.80;;;;110558;1254;41192;-68
2022/04/28 00:04:16;;;;;;;6.70;2.90;;;;;12.80;97566.20;;;;110563;1253;41838;-69
2022/04/28 00:06:47;;;;;;;8.00;3.10;;;;;12.70;97568.20;;;;110555;1253;41326;-67
2022/04/28 00:09:17;;;;;;;5.60;2.80;;;;;12.70;97568.00;;;;110571;1254;41155;-67
2022/04/28 00:11:51;;;;;;;6.60;2.90;;;;;12.70;97567.40;;;;110539;1254;41276;-67
2022/04/28 00:14:22;;;;;;;5.20;2.60;;;;;12.70;97565.40;;;;110545;1254;42585;-67
2022/04/28 00:16:52;;;;;;;;;;;;;12.64;97569.00;;;;110483;1254;41188;-67
2022/04/28 00:19:22;;;;;;;4.90;2.40;;;;;12.60;97561.60;;;;110429;1254;41172;-68
2022/04/28 00:21:52;;;;;;;6.30;2.90;;;;;12.60;97559.00;;;;110513;1254;41608;-68
2022/04/28 00:24:22;;;;;;;7.20;2.80;;;;;12.58;97556.40;;;;110554;1253;41965;-68
2022/04/28 00:26:53;;;;;;;6.10;2.50;;;;;12.58;97565.00;;;;110505;1251;42064;-68
2022/04/28 00:29:24;;;;;;;6.50;2.50;;;;;12.52;97560.40;;;;110565;1254;41142;-67
2022/04/28 00:31:56;;;;;;;5.30;2.50;;;;;12.50;97555.20;;;;110653;1253;41274;-68
2022/04/28 00:34:27;;;;;;;6.60;2.60;;;;;12.50;97548.40;;;;110507;1254;41252;-68
2022/04/28 00:36:56;;;;;;;5.30;2.50;;;;;12.50;97543.40;;;;110298;1256;41266;-68
2022/04/28 00:39:26;;;;;;;5.20;2.40;;;;;12.48;97541.60;;;;110464;1255;41134;-67
2022/04/28 00:41:56;;;;;;;7.00;2.90;;;;;12.44;97538.00;;;;110347;1257;41147;-66
2022/04/28 00:44:26;;;;;;;6.10;2.80;;;;;12.40;97531.00;;;;110534;1253;41144;-67
2022/04/28 00:46:55;;;;;;;5.40;2.70;;;;;12.40;97528.80;;;;110582;1254;41242;-68
2022/04/28 00:52:13;;;;;;;5.50;2.50;;;;;12.30;97518.20;;;;110525;1254;41277;-69
2022/04/28 00:54:44;;;;;;;6.30;2.90;;;;;12.30;97513.20;;;;110483;1254;41661;-69
2022/04/28 00:57:14;;;;;;;6.00;2.40;;;;;12.24;97506.80;;;;110555;1254;41268;-67
2022/04/28 00:59:47;;;;;;;5.20;2.50;;;;;12.20;97511.00;;;;110447;1254;41161;-68
2022/04/28 01:02:19;;;;;;;5.80;2.60;;;;;12.20;97502.40;;;;110554;1254;41266;-67
2022/04/28 01:04:49;;;;;;;6.20;2.80;;;;;12.20;97496.40;;;;110593;1254;41384;-67
2022/04/28 01:07:18;;;;;;;8.50;3.20;;;;;12.20;97486.00;;;;110323;1257;42389;-68
2022/04/28 01:09:49;;;;;;;6.80;3.30;;;;;12.10;97486.60;;;;110397;1255;41223;-68
2022/04/28 01:12:20;;;;;;;7.50;3.20;;;;;12.10;97487.60;;;;110327;1257;41153;-67
2022/04/28 01:14:56;;;;;;;7.00;3.20;;;;;12.02;97487.60;;;;110357;1256;41266;-68
2022/04/28 01:17:26;;;;;;;8.00;3.80;;;;;12.00;97492.80;;;;110489;1254;41688;-68
2022/04/28 01:20:05;;;;;;;7.40;3.10;;;;;12.00;97489.20;;;;110550;1254;41275;-69
2022/04/28 01:22:38;;;;;;;8.60;3.40;;;;;11.96;97494.20;;;;110519;1254;41615;-67
2022/04/28 01:25:13;;;;;;;8.50;3.00;;;;;11.90;97491.20;;;;110499;1254;41311;-68
2022/04/28 01:27:43;;;;;;;6.60;2.90;;;;;11.88;97489.60;;;;110547;1254;41147;-68
2022/04/28 01:30:15;;;;;;;7.90;2.90;;;;;11.80;97494.60;;;;110580;1253;41282;-68
2022/04/28 01:32:57;;;;;;;7.40;3.20;;;;;11.80;97496.40;;;;110584;1254;41609;-68
2022/04/28 01:35:27;;;;;;;9.00;3.30;;;;;11.70;97494.40;;;;110209;1256;41278;-68
2022/04/28 01:37:57;;;;;;;8.20;3.70;;;;;11.70;97494.80;;;;110578;1254;42374;-68
2022/04/28 01:40:29;;;;;;;8.90;4.30;;;;;11.60;97493.20;;;;110475;1254;41796;-69
2022/04/28 01:43:01;;;;;;;8.50;3.70;;;;;11.60;97491.00;;;;110439;1253;41741;-66
2022/04/28 01:45:31;;;;;;;7.70;3.60;;;;;11.50;97487.00;;;;110386;1256;41643;-68
2022/04/28 01:48:11;;;;;;;7.20;3.60;;;;;11.50;97481.60;;;;110507;1253;42570;-67
2022/04/28 01:56:47;;;;;;;6.70;3.00;;;;;11.30;97457.40;;;;110626;1254;41271;-67
2022/04/28 01:59:30;;;;;;;7.10;2.90;;;;;11.20;97451.00;;;;110279;1256;41628;-68
2022/04/28 02:02:15;;;;;;;7.10;3.20;;;;;11.20;97446.00;;;;110591;1253;41280;-69
2022/04/28 02:04:46;;;;;;;7.20;3.10;;;;;11.10;97441.60;;;;110562;1254;41939;-67
2022/04/28 02:07:17;;;;;;;6.30;2.80;;;;;11.10;97439.40;;;;110560;1254;41946;-67
2022/04/28 02:09:47;;;;;;;;;;;;;11.06;97437.60;;;;110419;1254;41265;-68
2022/04/28 02:12:20;;;;;;;6.10;3.00;;;;;11.00;97434.20;;;;110540;1253;41138;-67
2022/04/28 02:15:09;;;;;;;7.40;3.30;;;;;11.00;97432.60;;;;110536;1254;41273;-68
2022/04/28 02:17:42;;;;;;;9.20;3.60;;;;;10.98;97432.00;;;;110530;1253;41276;-68
2022/04/28 02:20:14;;;;;;;7.50;3.40;;;;;10.94;97430.00;;;;110323;1254;41583;-68
2022/04/28 02:22:45;;;;;;;7.00;3.40;;;;;10.90;97428.40;;;;110432;1254;41939;-68
2022/04/28 02:25:15;;;;;;;7.00;3.60;;;;;10.90;97430.60;;;;110529;1254;41633;-68
2022/04/28 02:27:45;;;;;;;;;;;;;10.90;97430.60;;;;110463;1254;41150;-66
2022/04/28 02:30:15;;;;;;;7.10;3.30;;;;;10.80;97423.80;;;;110404;1254;41149;-69
2022/04/28 02:35:44;;;;;;;5.90;2.70;;;;;10.80;97416.60;;;;110560;1253;41678;-67
2022/04/28 02:38:14;;;;;;;8.70;3.20;;;;;10.80;97416.20;;;;110464;1254;41197;-68
2022/04/28 02:40:45;;;;;;;6.80;3.10;;;;;10.80;97409.60;;;;110553;1253;41742;-68
2022/04/28 02:43:15;;;;;;;6.40;3.30;;;;;10.80;97412.80;;;;110537;1253;42379;-67
2022/04/28 02:45:46;;;;;;;6.50;3.00;;;;;10.80;97418.00;;;;110448;1254;41182;-66
2022/04/28 02:48:17;;;;;;;6.80;3.20;;;;;10.80;97420.20;;;;110484;1254;41144;-67
2022/04/28 02:50:48;;;;;;;;;;;;;10.70;97420.00;;;;110513;1253;41150;-68
2022/04/28 02:53:19;;;;;;;6.90;3.10;;;;;10.68;97421.80;;;;110458;1254;41500;-67
2022/04/28 02:55:52;;;;;;;7.60;3.40;;;;;10.60;97423.80;;;;110494;1254;42748;-68
2022/04/28 02:58:23;;;;;;;7.10;3.50;;;;;10.60;97427.60;;;;110433;1256;41725;-66
2022/04/28 03:00:53;;;;;;;7.40;3.60;;;;;10.54;97429.60;;;;110463;1254;41329;-67
2022/04/28 03:03:23;;;;;;;7.60;3.30;;;;;10.50;97435.60;;;;110414;1254;41499;-68
2022/04/28 03:11:31;;;;;;;6.90;2.70;;;;;10.40;97444.00;;;;110467;1254;41523;-68
2022/04/28 03:14:02;;;;;;;7.20;3.60;;;;;10.40;97455.80;;;;110479;1254;41146;-69
2022/04/28 03:16:33;;;;;;;7.50;3.30;;;;;10.46;97462.00;;;;110480;1254;41884;-68
2022/04/28 03:19:05;;;;;;;7.50;3.50;;;;;10.40;97473.40;;;;110379;1253;41150;-66
2022/04/28 03:21:37;;;;;;;6.90;3.00;;;;;10.40;97475.80;;;;110413;1255;41617;-68
2022/04/28 03:24:10;;;;;;;5.30;2.60;;;;;10.30;97475.40;;;;110302;1254;41257;-68
2022/04/28 03:26:40;;;;;;;5.30;2.50;;;;;10.30;97478.40;;;;110204;1254;42251;-67
2022/04/28 03:29:13;;;;;;;6.10;2.70;;;;;10.30;97472.60;;;;110380;1253;42007;-66
2022/04/28 03:31:42;;;;;;;7.50;2.40;;;;;10.30;97481.60;;;;110540;1253;41162;-68
2022/04/28 03:34:24;;;;;;;5.90;2.80;;;;;10.30;97484.40;;;;110543;1254;40894;-68
2022/04/28 03:36:55;;;;;;;6.10;2.70;;;;;10.40;97489.00;;;;110658;1251;41157;-68
2022/04/28 03:39:29;;;;;;;5.80;2.60;;;;;10.40;97491.40;;;;110376;1253;42588;-68
2022/04/28 03:41:59;;;;;;;6.50;2.80;;;;;10.48;97490.40;;;;110575;1254;41155;-68
2022/04/28 03:44:28;;;;;;;8.10;3.30;;;;;10.50;97489.40;;;;110501;1254;42142;-67
2022/04/28 03:46:58;;;;;;;5.40;2.50;;;;;10.54;97497.60;;;;110425;1256;41950;-68
2022/04/28 03:49:28;;;;;;;5.30;2.50;;;;;10.60;97504.60;;;;110452;1256;41207;-68
2022/04/28 03:51:58;;;;;;;5.40;2.40;;;;;10.60;97507.60;;;;110494;1253;41159;-68
2022/04/28 03:54:28;;;;;;;8.70;2.50;;;;;10.60;97508.80;;;;110410;1254;41694;-67
2022/04/28 03:56:58;;;;;;;6.10;2.60;;;;;10.70;97512.00;;;;110424;1253;41434;-69
2022/04/28 03:59:28;;;;;;;7.20;3.30;;;;;10.70;97519.60;;;;110502;1253;41150;-68
2022/04/28 04:02:18;;;;;;;8.30;4.00;;;;;10.78;97516.00;;;;110486;1254;41656;-67
2022/04/28 04:04:48;;;;;;;8.10;3.20;;;;;10.80;97511.60;;;;110435;1254;41734;-67
2022/04/28 04:07:17;;;;;;;8.10;3.50;;;;;10.80;97514.60;;;;110517;1253;41168;-66
2022/04/28 04:10:11;;;;;;;6.60;3.00;;;;;10.90;97514.80;;;;110469;1253;41143;-66
2022/04/28 04:12:44;;;;;;;7.30;3.30;;;;;10.90;97515.60;;;;110329;1254;41978;-66
2022/04/28 04:15:15;;;;;;;7.60;3.30;;;;;10.78;97517.40;;;;110512;1254;41808;-66
2022/04/28 04:18:04;;;;;;;8.20;3.90;;;;;10.70;97521.20;;;;110458;1254;41276;-65
2022/04/28 04:20:41;;;;;;;8.10;3.90;;;;;10.60;97520.00;;;;110512;1253;41698;-67
2022/04/28 04:23:11;;;;;;;7.70;3.60;;;;;10.60;97519.20;;;;110511;1253;41136;-66
2022/04/28 04:25:40;;;;;;;8.40;3.40;;;;;10.60;97525.20;;;;110573;1253;41152;-66
2022/04/28 04:28:16;;;;;;;7.90;3.40;;;;;10.62;97528.80;;;;110539;1253;41184;-66
2022/04/28 04:34:18;;;;;;;8.00;3.80;;;;;10.70;97536.20;;;;110537;1253;41249;-66
2022/04/28 04:36:48;;;;;;;7.80;3.70;;;;;10.70;97537.00;;;;110552;1254;41614;-66
2022/04/28 04:39:17;;;;;;;8.50;4.20;;;;;10.78;97535.40;;;;110476;1254;42552;-67
2022/04/28 04:41:46;;;;;;;10.30;4.70;;;;;10.80;97537.00;;;;110363;1255;41304;-66
2022/04/28 04:44:16;;;;;;;10.40;5.10;;;;;10.80;97533.20;;;;110520;1253;41158;-67
2022/04/28 04:46:48;;;;;;;9.40;4.80;;;;;10.90;97537.00;;;;110424;1253;41270;-66
2022/04/28 04:49:36;;;;;;;8.10;4.00;;;;;10.90;97540.20;;;;110533;1253;41142;-67
2022/04/28 04:52:18;;;;;;;9.20;3.80;;;;;10.90;97543.40;;;;110470;1251;41443;-65
2022/04/28 04:54:59;;;;;;;8.60;3.90;;;;;10.90;97548.40;;;;110451;1254;41605;-66
2022/04/28 04:57:29;;;;;;;8.70;3.30;;;;;10.90;97547.20;;;;110402;1254;41287;-66
2022/04/28 04:59:58;;;;;;;8.00;3.50;;;;;10.90;97549.40;;;;110415;1254;41622;-66
2022/04/28 05:02:30;;;;;;;6.60;3.20;;;;;11.00;97550.40;;;;110478;1254;41603;-66
2022/04/28 05:05:18;;;;;;;8.30;4.20;;;;;11.00;97550.20;;;;110554;1253;41609;-66
2022/04/28 05:08:17;;;;;;;9.20;4.00;;;;;11.00;97555.80;;;;110424;1253;41267;-66
2022/04/28 05:10:58;;;;;;;10.10;3.90;;;;;11.08;97559.60;;;;110588;1251;41270;-67
2022/04/28 05:13:27;;;;;;;8.20;3.80;;;;;11.10;97562.40;;;;110376;1253;42454;-67
2022/04/28 05:15:59;;;;;;;8.70;3.80;;;;;11.10;97562.80;;;;110583;1253;41174;-67
2022/04/28 05:18:52;;;;;;;10.70;5.20;;;;;11.20;97560.20;;;;110457;1253;41275;-65
2022/04/28 05:21:35;;;;;;;9.00;4.80;;;;;11.20;97560.60;;;;110458;1254;41187;-66
2022/04/28 05:24:05;;;;;;;9.80;5.00;;;;;11.24;97559.80;;;;110588;1251;41145;-65
2022/04/28 05:26:53;;;;;;;11.40;6.30;;;;;11.30;97563.60;;;;110490;1253;41251;-65
2022/04/28 05:29:42;;;;;;;8.80;4.70;;;;;11.36;97566.80;;;;110550;1253;41191;-65
2022/04/28 05:32:41;;;;;;;8.40;4.60;;;;;11.40;97566.40;;;;110486;1253;42533;-65
2022/04/28 05:35:19;;;;;;;7.80;3.70;;;;;11.40;97573.80;;;;110492;1254;41258;-66
2022/04/28 05:37:48;;;;;;;10.30;4.10;;;;;11.50;97574.80;;;;110549;1252;41309;-65
2022/04/28 05:40:17;;;;;;;8.40;4.50;;;;;11.50;97577.40;;;;110481;1253;41392;-65
2022/04/28 05:45:43;;;;;;;7.50;3.60;;;;;11.42;97583.40;;;;110456;1254;42480;-64
2022/04/28 05:48:16;;;;;;;9.20;3.10;;;;;11.50;97581.40;;;;110515;1253;41465;-65
2022/04/28 05:50:49;;;;;;;6.00;2.80;;;;;11.50;97585.20;;;;110554;1252;42581;-64
2022/04/28 05:53:23;;;;;;;8.20;3.60;;;;;11.50;97586.40;;;;110588;1252;41202;-65
2022/04/28 05:56:00;;;;;;;6.10;2.70;;;;;11.50;97589.60;;;;110376;1251;41267;-65
2022/04/28 05:58:50;;;;;;;5.70;2.70;;;;;11.60;97597.00;;;;110433;1253;41174;-64
2022/04/28 06:01:38;;;;;;;6.80;2.60;;;;;11.60;97599.00;;;;110500;1254;41172;-66
2022/04/28 06:04:09;;;;;;;;;;;;;11.60;97600.40;;;;110354;1254;41141;-64
2022/04/28 06:06:41;;;;;;;5.60;2.50;;;;;11.54;97604.80;;;;110650;1251;41250;-64
2022/04/28 06:09:28;;;;;;;6.00;2.70;;;;;11.50;97606.40;;;;110491;1253;41263;-64
2022/04/28 06:11:57;;;;;;;4.60;2.40;;;;;11.52;97604.80;;;;110631;1253;41673;-64
2022/04/28 06:14:27;;;;;;;7.30;3.20;;;;;11.58;97606.80;;;;110513;1254;41151;-63
2022/04/28 06:17:28;;;;;;;8.40;3.80;;;;;11.60;97603.00;;;;110215;1255;41630;-64
2022/04/28 06:19:58;;;;;;;8.10;3.80;;;;;11.60;97603.00;;;;110564;1253;41139;-65
2022/04/28 06:22:46;;;;;;;11.20;5.10;;;;;11.60;97599.80;;;;110404;1253;41255;-65
2022/04/28 06:25:15;;;;;;;9.80;4.50;;;;;11.70;97600.20;;;;110418;1254;41413;-65
2022/04/28 06:27:47;;;;;;;8.50;3.80;;;;;11.62;97607.00;;;;110041;1253;712025;-64
2022/04/28 06:30:17;;;;;;;9.10;4.30;;;;;11.70;97604.40;;;;110487;1253;41253;-64
2022/04/28 06:32:49;;;;;;;10.20;6.00;;;;;11.70;97604.60;;;;110281;1253;41202;-65
2022/04/28 06:35:27;;;;;;;18.30;12.90;;;;;11.70;97605.80;;;;110521;1254;42077;-64
2022/04/28 06:37:57;;;;;;;12.90;7.80;;;;;11.70;97609.20;;;;110622;1253;41154;-64
2022/04/28 06:40:27;;;;;;;11.20;5.20;;;;;11.70;97604.20;;;;110476;1253;41152;-64
2022/04/28 06:42:57;;;;;;;15.90;9.60;;;;;11.70;97611.20;;;;110369;1254;41192;-64
2022/04/28 06:45:26;;;;;;;10.00;4.70;;;;;11.78;97612.00;;;;110549;1254;41185;-64
2022/04/28 06:48:14;;;;;;;7.20;3.50;;;;;11.70;97612.60;;;;110453;1253;41470;-65
2022/04/28 06:50:43;;;;;;;8.80;3.70;;;;;11.70;97615.80;;;;110565;1253;41137;-64
2022/04/28 06:53:32;;;;;;;7.90;3.60;;;;;11.70;97615.00;;;;110520;1253;41312;-65
2022/04/28 06:56:09;;;;;;;7.90;3.60;;;;;11.70;97619.20;;;;110556;1253;41138;-64
2022/04/28 06:58:56;;;;;;;8.90;3.90;;;;;11.80;97617.80;;;;110563;1253;41411;-64
2022/04/28 07:01:31;;;;;;;8.00;3.60;;;;;11.80;97614.20;;;;110572;1253;41730;-64
2022/04/28 07:04:09;;;;;;;6.80;3.30;;;;;11.74;97613.60;;;;110493;1253;42504;-65
2022/04/28 07:06:38;;;;;;;8.70;3.80;;;;;11.70;97619.80;;;;110375;1254;41663;-64
2022/04/28 07:09:08;;;;;;;8.40;3.80;;;;;11.74;97619.00;;;;110507;1254;41165;-64
2022/04/28 07:11:38;;;;;;;10.00;3.40;;;;;11.70;97621.80;;;;110354;1255;41155;-64
2022/04/28 07:14:43;;;;;;;8.70;4.00;;;;;11.70;97632.40;;;;110326;1254;41433;-65
2022/04/28 07:17:22;;;;;;;8.40;3.80;;;;;11.70;97630.80;;;;110377;1255;41939;-65
2022/04/28 07:19:57;;;;;;;6.40;2.80;;;;;11.70;97633.20;;;;110540;1251;41192;-64
2022/04/28 07:22:28;;;;;;;8.30;3.70;;;;;11.70;97637.00;;;;110498;1253;41964;-65
2022/04/28 07:24:57;;;;;;;6.60;3.40;;;;;11.70;97638.20;;;;110491;1253;41271;-65
2022/04/28 07:27:26;;;;;;;8.40;3.10;;;;;11.70;97640.00;;;;110479;1254;41172;-65
2022/04/28 07:30:05;;;;;;;7.70;3.30;;;;;11.80;97647.00;;;;110441;1253;41752;-64
2022/04/28 07:32:40;;;;;;;7.30;3.40;;;;;11.80;97645.40;;;;110437;1254;41264;-65
2022/04/28 07:35:19;;;;;;;7.10;3.40;;;;;11.90;97646.80;;;;110502;1255;41617;-64
2022/04/28 07:38:06;;;;;;;8.20;3.70;;;;;11.90;97645.80;;;;110562;1253;41564;-65
2022/04/28 07:40:43;;;;;;;7.60;3.40;;;;;12.00;97654.00;;;;110570;1254;41256;-64
2022/04/28 07:43:17;;;;;;;7.60;3.40;;;;;11.96;97655.20;;;;110494;1254;41393;-65
2022/04/28 07:45:51;;;;;;;5.10;2.70;;;;;11.92;97661.40;;;;110471;1253;41277;-64
2022/04/28 07:48:20;;;;;;;7.00;2.90;;;;;11.90;97661.20;;;;110581;1253;41608;-65
2022/04/28 07:50:50;;;;;;;7.30;3.20;;;;;11.80;97661.00;;;;110557;1252;42169;-64
2022/04/28 07:53:24;;;;;;;7.50;2.80;;;;;11.78;97670.60;;;;110358;1253;41280;-64
2022/04/28 07:58:43;;;;;;;5.60;2.10;;;;;11.62;97681.20;;;;110462;1254;41304;-64
2022/04/28 08:01:50;;;;;;;6.50;2.30;;;;;11.50;97682.60;;;;110483;1253;41427;-65
2022/04/28 08:04:20;;;;;;;4.30;2.10;;;;;11.40;97682.00;;;;110365;1253;42432;-66
2022/04/28 08:07:02;;;;;;;5.40;2.00;;;;;11.24;97687.20;;;;110476;1253;41267;-65
2022/04/28 08:09:32;;;;;;;4.30;1.70;;;;;11.16;97693.00;;;;110472;1253;40905;-65
2022/04/28 08:12:07;;;;;;;1.90;1.40;;;;;11.10;97699.20;;;;110434;1254;41629;-66
2022/04/28 08:14:49;;;;;;;1.90;1.40;;;;;10.90;97702.20;;;;110306;1254;41183;-65
2022/04/28 08:17:19;;;;;;;3.00;1.70;;;;;10.88;97709.60;;;;110495;1254;41252;-65
2022/04/28 08:19:48;;;;;;;7.10;1.90;;;;;10.80;97708.60;;;;110437;1255;41295;-65
2022/04/28 08:22:17;;;;;;;9.80;2.10;;;;;10.72;97706.40;;;;110440;1255;42568;-65
2022/04/28 08:24:46;;;;;;;4.20;2.00;;;;;10.80;97704.40;;;;110274;1253;41161;-65
2022/04/28 08:27:16;;;;;;;4.20;1.90;;;;;10.74;97710.40;;;;110490;1256;41172;-65
2022/04/28 08:29:45;;;;;;;4.00;1.90;;;;;10.80;97712.60;;;;110540;1254;41264;-64
2022/04/28 08:32:19;;;;;;;4.50;2.00;;;;;10.80;97713.00;;;;110523;1254;41151;-65
2022/04/28 08:34:48;;;;;;;7.60;2.90;;;;;10.80;97716.40;;;;110451;1255;41140;-65
2022/04/28 08:37:18;;;;;;;4.80;2.20;;;;;10.90;97717.00;;;;110508;1253;41276;-64
2022/04/28 08:39:47;;;;;;;8.20;2.70;;;;;11.00;97718.00;;;;110418;1253;41281;-64
2022/04/28 08:42:17;;;;;;;5.00;2.10;;;;;11.00;97717.20;;;;110482;1254;41716;-64
2022/04/28 08:45:00;;;;;;;2.40;1.50;;;;;11.10;97720.20;;;;110303;1253;41255;-64
2022/04/28 08:47:46;;;;;;;4.50;1.80;;;;;11.10;97722.40;;;;110290;1254;41162;-64
2022/04/28 08:50:40;;;;;;;4.20;1.70;;;;;11.20;97722.00;;;;110489;1254;41210;-64
2022/04/28 08:53:13;;;;;;;3.60;1.60;;;;;11.20;97722.00;;;;110320;1254;41161;-65
2022/04/28 08:55:43;;;;;;;3.80;1.80;;;;;11.20;97716.40;;;;110517;1253;41597;-65
2022/04/28 08:58:12;;;;;;;2.10;1.50;;;;;11.16;97725.60;;;;110503;1255;41160;-65
2022/04/28 09:00:46;;;;;;;6.10;1.60;;;;;11.14;97725.60;;;;110411;1253;41367;-65
2022/04/28 09:03:28;;;;;;;2.90;1.60;;;;;11.10;97726.80;;;;110474;1254;41676;-64
2022/04/28 09:06:37;;;;;;;3.90;1.70;;;;;11.20;97719.80;;;;110244;1257;41291;-64
2022/04/28 09:09:38;;;;;;;3.60;1.50;;;;;11.20;97720.80;;;;109969;1258;42201;-65
2022/04/28 09:12:27;;;;;;;1.60;1.30;;;;;11.30;97720.60;;;;110455;1253;42186;-65
2022/04/28 09:15:26;;;;;;;4.10;1.50;;;;;11.30;97718.60;;;;110528;1254;42500;-65
2022/04/28 09:18:04;;;;;;;3.90;1.60;;;;;11.30;97721.80;;;;110492;1252;42195;-65
2022/04/28 09:20:36;;;;;;;3.20;1.50;;;;;11.30;97724.60;;;;110428;1253;41179;-65
2022/04/28 09:23:11;;;;;;;3.40;1.60;;;;;11.30;97723.80;;;;110475;1254;41707;-66
2022/04/28 09:25:46;;;;;;;2.80;1.60;;;;;11.30;97725.60;;;;110621;1253;41383;-65
2022/04/28 09:28:15;;;;;;;4.10;1.80;;;;;11.30;97725.40;;;;110467;1254;41539;-65
2022/04/28 09:30:50;;;;;;;3.10;1.70;;;;;11.34;97733.40;;;;110549;1253;42505;-65
2022/04/28 09:33:54;;;;;;;3.90;1.70;;;;;11.40;97731.80;;;;110120;1259;41264;-65
2022/04/28 09:36:59;;;;;;;3.90;1.70;;;;;11.50;97736.60;;;;110131;1257;41493;-66
2022/04/28 09:42:31;;;;;;;3.90;1.50;;;;;11.56;97743.20;;;;110484;1253;41246;-66
2022/04/28 09:45:02;;;;;;;2.60;1.20;;;;;11.62;97742.00;;;;110531;1254;41269;-64
2022/04/28 09:47:36;;;;;;;2.70;1.50;;;;;11.60;97741.40;;;;110464;1253;41885;-66
2022/04/28 09:50:14;;;;;;;2.60;1.50;;;;;11.60;97740.00;;;;110497;1252;41152;-65
2022/04/28 09:53:05;;;;;;;3.40;1.60;;;;;11.60;97746.80;;;;110538;1251;41898;-64
2022/04/28 09:55:53;;;;;;;4.40;1.50;;;;;11.70;97748.60;;;;110497;1253;41242;-65
2022/04/28 09:58:31;;;;;;;2.50;1.50;;;;;11.76;97752.40;;;;110434;1254;42621;-65
2022/04/28 10:01:03;;;;;;;;;;;;;11.80;97749.60;;;;110328;1253;43008;-66
2022/04/28 10:03:34;;;;;;;3.10;1.60;;;;;11.80;97756.00;;;;110483;1254;41584;-64
2022/04/28 10:06:05;;;;;;;3.00;1.70;;;;;11.80;97761.80;;;;110388;1254;41313;-65
2022/04/28 10:08:51;;;;;;;4.70;1.80;;;;;11.78;97759.00;;;;110524;1253;41176;-65
2022/04/28 10:11:23;;;;;;;4.00;1.80;;;;;11.70;97754.40;;;;110379;1254;42538;-65
2022/04/28 10:13:55;;;;;;;4.50;1.70;;;;;11.72;97759.00;;;;110322;1253;41154;-64
2022/04/28 10:16:24;;;;;;;3.60;1.70;;;;;11.70;97757.80;;;;110378;1253;41845;-65
2022/04/28 10:19:04;;;;;;;4.20;1.70;;;;;11.80;97755.80;;;;110516;1253;41157;-65
2022/04/28 10:21:57;;;;;;;3.10;1.60;;;;;11.80;97761.40;;;;110448;1253;41572;-64
2022/04/28 10:33:11;;;;;;;2.50;1.50;;;;;12.00;97738.80;;;;110508;1254;41260;-65
2022/04/28 10:35:41;;;;;;;;;;;;;12.18;97738.60;;;;110438;1254;41163;-65
2022/04/28 10:38:14;;;;;;;4.90;1.70;;;;;12.30;97737.60;;;;110574;1253;41879;-65
2022/04/28 10:40:58;;;;;;;4.10;1.60;;;;;12.50;97740.80;;;;110570;1253;41190;-65
2022/04/28 10:43:34;;;;;;;4.10;1.90;;;;;12.60;97738.00;;;;110543;1253;41405;-66
2022/04/28 10:46:15;;;;;;;4.00;1.80;;;;;12.70;97739.20;;;;110477;1255;41155;-65
2022/04/28 10:48:47;;;;;;;3.60;1.80;;;;;12.74;97737.60;;;;110523;1253;41175;-65
2022/04/28 10:51:19;;;;;;;3.20;1.60;;;;;12.80;97744.60;;;;110479;1254;41909;-66
2022/04/28 10:53:58;;;;;;;1.90;1.50;;;;;12.90;97734.60;;;;110489;1253;41632;-65
2022/04/28 10:56:54;;;;;;;3.70;1.80;;;;;12.96;97730.60;;;;110466;1253;41279;-65
2022/04/28 10:59:27;;;;;;;3.20;1.70;;;;;12.90;97735.80;;;;110544;1254;41706;-65
2022/04/28 11:01:57;;;;;;;5.30;1.80;;;;;13.00;97741.20;;;;110562;1253;41296;-65
2022/04/28 11:04:26;;;;;;;3.30;1.60;;;;;13.00;97746.00;;;;110456;1253;41154;-64
2022/04/28 11:06:57;;;;;;;2.30;1.40;;;;;12.94;97750.00;;;;110493;1255;41269;-64
2022/04/28 11:09:36;;;;;;;2.60;1.40;;;;;13.00;97752.20;;;;110585;1253;41171;-65
2022/04/28 11:12:08;;;;;;;2.80;1.50;;;;;13.00;97752.80;;;;110406;1253;41494;-65
2022/04/28 11:14:44;;;;;;;1.70;1.20;;;;;12.94;97752.20;;;;110525;1253;41260;-64
2022/04/28 11:17:15;;;;;;;2.80;1.40;;;;;12.96;97753.80;;;;110564;1254;42264;-64
2022/04/28 11:19:44;;;;;;;2.90;1.70;;;;;12.80;97760.00;;;;110522;1254;41153;-64
2022/04/28 11:22:14;;;;;;;3.30;1.50;;;;;12.90;97763.00;;;;110559;1253;41997;-64
2022/04/28 11:24:45;;;;;;;3.40;1.70;;;;;13.00;97763.60;;;;110479;1256;41467;-66
2022/04/28 11:27:30;;;;;;;2.60;1.40;;;;;12.98;97762.60;;;;110410;1256;41868;-65
2022/04/28 11:30:17;;;;;;;3.20;1.60;;;;;13.00;97760.40;;;;110256;1254;42022;-65
2022/04/28 11:32:59;;;;;;;2.50;1.40;;;;;13.10;97760.00;;;;110566;1253;41389;-65
2022/04/28 11:35:39;;;;;;;2.60;1.50;;;;;13.20;97753.40;;;;110525;1253;41890;-66
2022/04/28 11:38:09;;;;;;;3.10;1.50;;;;;13.40;97758.20;;;;110552;1253;42557;-65
2022/04/28 11:40:44;;;;;;;4.10;1.60;;;;;13.48;97759.40;;;;110383;1253;41163;-65
2022/04/28 11:43:14;;;;;;;3.20;1.60;;;;;13.66;97756.80;;;;110618;1254;43008;-66
2022/04/28 11:45:45;;;;;;;5.30;1.40;;;;;13.82;97760.40;;;;110537;1254;41201;-64
2022/04/28 11:48:14;;;;;;;3.30;1.30;;;;;13.90;97755.20;;;;110516;1254;41263;-64
2022/04/28 11:50:43;;;;;;;2.60;1.40;;;;;14.06;97756.00;;;;110656;1252;42010;-66
2022/04/28 11:53:12;;;;;;;4.40;1.50;;;;;14.30;97757.60;;;;110614;1253;41146;-65
2022/04/28 11:55:42;;;;;;;2.10;1.30;;;;;14.44;97757.40;;;;110610;1253;41138;-64
2022/04/28 11:58:16;;;;;;;3.70;1.50;;;;;14.46;97760.20;;;;110393;1255;42155;-63
2022/04/28 12:00:46;;;;;;;4.60;1.50;;;;;14.56;97753.00;;;;110574;1253;42461;-64
2022/04/28 12:03:28;;;;;;;2.70;1.40;;;;;14.60;97753.20;;;;110533;1253;41616;-66
2022/04/28 12:05:57;;;;;;;;;;;;;14.58;97749.40;;;;110502;1253;41155;-65
2022/04/28 12:08:26;;;;;;;3.70;1.60;;;;;14.12;97754.40;;;;110561;1254;41215;-65
2022/04/28 12:19:24;;;;;;;3.20;1.50;;;;;14.68;97742.20;;;;110491;1254;41152;-66
2022/04/28 12:22:01;;;;;;;4.80;1.80;;;;;14.68;97739.00;;;;110562;1254;42078;-65
2022/04/28 12:24:35;;;;;;;3.10;1.50;;;;;14.70;97739.80;;;;110548;1253;41146;-65
2022/04/28 12:27:08;;;;;;;2.50;1.50;;;;;14.60;97744.20;;;;110547;1254;41146;-65
2022/04/28 12:29:55;;;;;;;3.30;1.60;;;;;14.52;97740.00;;;;110596;1253;41734;-66
2022/04/28 12:32:25;;;;;;;3.40;1.70;;;;;14.70;97739.40;;;;110515;1254;41162;-66
2022/04/28 12:35:05;;;;;;;2.30;1.40;;;;;14.90;97738.40;;;;110549;1253;41781;-67
2022/04/28 12:37:38;;;;;;;2.10;1.40;;;;;15.10;97734.20;;;;110590;1253;41682;-66
2022/04/28 12:40:09;;;;;;;1.90;1.40;;;;;15.36;97726.80;;;;110733;1252;41814;-66
2022/04/28 12:42:47;;;;;;;2.30;1.30;;;;;15.94;97726.40;;;;110546;1253;41440;-65
2022/04/28 12:45:35;;;;;;;2.40;1.30;;;;;16.46;97721.20;;;;110612;1253;41687;-65
2022/04/28 12:48:04;;;;;;;4.30;1.40;;;;;17.40;97718.60;;;;110496;1254;41172;-65
2022/04/28 12:50:33;;;;;;;1.30;1.20;;;;;17.48;97728.20;;;;110596;1253;41139;-65
2022/04/28 12:53:02;;;;;;;1.60;1.30;;;;;17.58;97729.40;;;;110537;1253;41618;-66
2022/04/28 12:55:36;;;;;;;2.50;1.40;;;;;17.74;97726.00;;;;110635;1253;41705;-65
2022/04/28 12:58:05;;;;;;;1.60;1.20;;;;;18.00;97717.20;;;;110512;1253;41396;-66
2022/04/28 13:00:39;;;;;;;2.70;1.20;;;;;18.00;97714.40;;;;110545;1253;41137;-66
2022/04/28 13:03:08;;;;;;;1.20;1.10;;;;;17.76;97713.60;;;;110544;1253;42280;-67
2022/04/28 13:05:38;;;;;;;1.40;1.30;;;;;17.62;97720.00;;;;110398;1253;41276;-66
2022/04/28 13:08:07;;;;;;;1.80;1.20;;;;;17.40;97715.60;;;;110551;1253;41144;-65
2022/04/28 13:10:36;;;;;;;1.70;1.30;;;;;16.80;97716.60;;;;110610;1253;42075;-66
2022/04/28 13:13:06;;;;;;;3.30;1.30;;;;;16.64;97713.20;;;;110617;1253;41677;-65
2022/04/28 13:15:36;;;;;;;1.30;1.10;;;;;16.70;97715.20;;;;110516;1254;41267;-66
2022/04/28 13:18:05;;;;;;;1.90;1.30;;;;;16.70;97712.40;;;;110491;1254;42162;-66
2022/04/28 13:20:34;;;;;;;2.90;1.20;;;;;16.48;97720.60;;;;110534;1253;41262;-65
2022/04/28 13:23:04;;;;;;;2.50;1.40;;;;;16.30;97718.40;;;;110594;1253;41159;-65
2022/04/28 13:25:33;;;;;;;2.10;1.30;;;;;16.06;97715.20;;;;110579;1253;42553;-65
2022/04/28 13:28:02;;;;;;;1.30;1.20;;;;;16.20;97716.00;;;;110580;1253;41259;-65
2022/04/28 13:30:31;;;;;;;1.20;1.10;;;;;16.34;97712.80;;;;110604;1253;41260;-65
2022/04/28 13:33:00;;;;;;;5.00;1.30;;;;;16.42;97711.60;;;;110549;1253;41270;-66